sensor_id;sensor_type;location;lat;lon;timestamp;pressure;altitude;pressure_sealevel;temperature;humidity
25650;BME280;13505;45.196;5.696;2023-04-12T06:01:04;98547.78;;;12.28;79.36
25650;BME280;13505;45.196;5.696;2023-04-12T06:05:55;98549.81;;;12.52;77.35
25650;BME280;13505;45.196;5.696;2023-04-12T06:10:45;98546.72;;;12.46;77.81
25650;BME280;13505;45.196;5.696;2023-04-12T06:15:36;98548.41;;;12.47;78.10
25650;BME280;13505;45.196;5.696;2023-04-12T06:20:26;98566.59;;;12.66;77.43
25650;BME280;13505;45.196;5.696;2023-04-12T06:25:16;98559.53;;;12.79;77.12
25650;BME280;13505;45.196;5.696;2023-04-12T06:30:07;98585.09;;;12.66;76.92
25650;BME280;13505;45.196;5.696;2023-04-12T06:34:58;98570.53;;;12.73;76.19
25650;BME280;13505;45.196;5.696;2023-04-12T06:39:49;98582.31;;;12.82;76.13
25650;BME280;13505;45.196;5.696;2023-04-12T06:44:39;98581.81;;;12.90;75.83
25650;BME280;13505;45.196;5.696;2023-04-12T06:49:29;98579.84;;;12.51;78.27
25650;BME280;13505;45.196;5.696;2023-04-12T06:54:20;98588.84;;;12.91;77.30
25650;BME280;13505;45.196;5.696;2023-04-12T06:59:10;98595.53;;;13.09;75.59
25650;BME280;13505;45.196;5.696;2023-04-12T07:04:01;98589.44;;;13.22;74.98
25650;BME280;13505;45.196;5.696;2023-04-12T07:08:51;98586.84;;;13.35;73.45
25650;BME280;13505;45.196;5.696;2023-04-12T07:13:41;98570.25;;;13.59;73.32
25650;BME280;13505;45.196;5.696;2023-04-12T07:18:32;98562.94;;;13.62;72.37
25650;BME280;13505;45.196;5.696;2023-04-12T07:23:24;98558.38;;;13.64;71.52
25650;BME280;13505;45.196;5.696;2023-04-12T07:28:14;98556.09;;;13.60;71.83
25650;BME280;13505;45.196;5.696;2023-04-12T07:33:05;98556.50;;;13.66;71.76
25650;BME280;13505;45.196;5.696;2023-04-12T07:37:55;98546.63;;;13.56;72.46
25650;BME280;13505;45.196;5.696;2023-04-12T07:42:46;98541.75;;;13.62;71.69
25650;BME280;13505;45.196;5.696;2023-04-12T07:47:36;98547.47;;;13.69;70.68
25650;BME280;13505;45.196;5.696;2023-04-12T07:52:26;98557.88;;;13.72;70.41
25650;BME280;13505;45.196;5.696;2023-04-12T07:57:17;98560.31;;;13.75;69.54
25650;BME280;13505;45.196;5.696;2023-04-12T08:02:07;98566.91;;;13.82;69.60
25650;BME280;13505;45.196;5.696;2023-04-12T08:06:58;98561.38;;;13.86;67.95
25650;BME280;13505;45.196;5.696;2023-04-12T08:11:48;98563.06;;;13.87;67.71
25650;BME280;13505;45.196;5.696;2023-04-12T08:16:38;98579.53;;;13.92;68.01
25650;BME280;13505;45.196;5.696;2023-04-12T08:21:29;98589.59;;;14.00;68.64
25650;BME280;13505;45.196;5.696;2023-04-12T08:26:19;98547.34;;;14.09;69.40
25650;BME280;13505;45.196;5.696;2023-04-12T08:31:10;98549.50;;;14.04;70.17
25650;BME280;13505;45.196;5.696;2023-04-12T08:36:00;98549.66;;;14.14;69.16
25650;BME280;13505;45.196;5.696;2023-04-12T08:40:51;98562.59;;;14.32;69.79
25650;BME280;13505;45.196;5.696;2023-04-12T08:45:41;98571.69;;;14.41;68.74
25650;BME280;13505;45.196;5.696;2023-04-12T08:50:31;98556.81;;;14.14;68.81
25650;BME280;13505;45.196;5.696;2023-04-12T08:55:22;98556.25;;;14.08;68.28
25650;BME280;13505;45.196;5.696;2023-04-12T09:00:13;98540.25;;;13.97;70.04
25650;BME280;13505;45.196;5.696;2023-04-12T09:05:05;98536.31;;;14.03;68.98
25650;BME280;13505;45.196;5.696;2023-04-12T09:09:56;98529.34;;;14.02;68.24
25650;BME280;13505;45.196;5.696;2023-04-12T09:14:47;98528.09;;;14.45;65.63
25650;BME280;13505;45.196;5.696;2023-04-12T09:19:37;98534.56;;;14.65;64.77
25650;BME280;13505;45.196;5.696;2023-04-12T09:24:28;98529.09;;;14.55;63.56
25650;BME280;13505;45.196;5.696;2023-04-12T09:29:23;98502.13;;;14.86;63.31
25650;BME280;13505;45.196;5.696;2023-04-12T09:34:14;98511.91;;;14.85;60.53
25650;BME280;13505;45.196;5.696;2023-04-12T09:39:05;98502.53;;;14.92;60.43
25650;BME280;13505;45.196;5.696;2023-04-12T09:44:00;98492.91;;;15.03;62.04
25650;BME280;13505;45.196;5.696;2023-04-12T09:48:52;98487.50;;;15.16;60.76
25650;BME280;13505;45.196;5.696;2023-04-12T09:53:45;98473.88;;;15.20;60.78
25650;BME280;13505;45.196;5.696;2023-04-12T09:58:38;98465.22;;;15.30;60.20
25650;BME280;13505;45.196;5.696;2023-04-12T10:03:29;98458.44;;;15.37;60.41
25650;BME280;13505;45.196;5.696;2023-04-12T10:08:21;98453.63;;;15.54;61.09
25650;BME280;13505;45.196;5.696;2023-04-12T10:13:14;98442.03;;;15.77;60.53
25650;BME280;13505;45.196;5.696;2023-04-12T10:18:05;98430.44;;;16.01;59.50
25650;BME280;13505;45.196;5.696;2023-04-12T10:22:57;98434.31;;;15.97;59.00
25650;BME280;13505;45.196;5.696;2023-04-12T10:27:50;98419.06;;;15.99;57.43
25650;BME280;13505;45.196;5.696;2023-04-12T10:32:40;98420.31;;;15.72;56.79
25650;BME280;13505;45.196;5.696;2023-04-12T10:37:57;98416.53;;;15.63;59.09
25650;BME280;13505;45.196;5.696;2023-04-12T10:42:48;98401.09;;;15.57;56.35
25650;BME280;13505;45.196;5.696;2023-04-12T10:47:58;98403.38;;;15.73;56.35
25650;BME280;13505;45.196;5.696;2023-04-12T10:57:59;98400.22;;;15.80;55.27
25650;BME280;13505;45.196;5.696;2023-04-12T11:03:03;98393.19;;;16.01;55.54
25650;BME280;13505;45.196;5.696;2023-04-12T11:07:55;98373.56;;;16.14;55.98
25650;BME280;13505;45.196;5.696;2023-04-12T11:12:49;98365.09;;;16.20;55.34
25650;BME280;13505;45.196;5.696;2023-04-12T11:17:39;98360.63;;;16.74;54.36
25650;BME280;13505;45.196;5.696;2023-04-12T11:22:31;98345.03;;;17.12;53.83
25650;BME280;13505;45.196;5.696;2023-04-12T11:27:23;98349.09;;;17.16;51.99
25650;BME280;13505;45.196;5.696;2023-04-12T11:32:14;98338.34;;;17.28;50.70
25650;BME280;13505;45.196;5.696;2023-04-12T11:37:05;98343.38;;;17.21;50.56
25650;BME280;13505;45.196;5.696;2023-04-12T11:41:57;98340.69;;;17.11;50.62
25650;BME280;13505;45.196;5.696;2023-04-12T11:46:48;98332.13;;;17.18;49.89
25650;BME280;13505;45.196;5.696;2023-04-12T11:51:38;98317.53;;;17.12;50.86
25650;BME280;13505;45.196;5.696;2023-04-12T11:56:29;98301.53;;;17.12;50.91
25650;BME280;13505;45.196;5.696;2023-04-12T12:01:21;98301.03;;;16.97;51.87
25650;BME280;13505;45.196;5.696;2023-04-12T12:06:12;98274.25;;;16.67;50.69
25650;BME280;13505;45.196;5.696;2023-04-12T12:11:03;98269.94;;;16.76;50.70
25650;BME280;13505;45.196;5.696;2023-04-12T12:15:55;98269.69;;;16.79;50.36
25650;BME280;13505;45.196;5.696;2023-04-12T12:20:49;98279.59;;;16.98;50.29
25650;BME280;13505;45.196;5.696;2023-04-12T12:25:44;98267.84;;;17.32;48.45
25650;BME280;13505;45.196;5.696;2023-04-12T12:30:37;98278.72;;;17.19;49.22
25650;BME280;13505;45.196;5.696;2023-04-12T12:35:33;98265.75;;;17.55;48.89
25650;BME280;13505;45.196;5.696;2023-04-12T12:40:28;98266.34;;;17.59;48.13
25650;BME280;13505;45.196;5.696;2023-04-12T12:45:26;98255.13;;;17.65;48.86
25650;BME280;13505;45.196;5.696;2023-04-12T12:50:18;98241.50;;;17.68;48.56
25650;BME280;13505;45.196;5.696;2023-04-12T12:55:09;98230.72;;;17.70;48.87
25650;BME280;13505;45.196;5.696;2023-04-12T13:00:00;98222.69;;;17.60;47.32
25650;BME280;13505;45.196;5.696;2023-04-12T13:04:50;98206.16;;;17.66;48.87
25650;BME280;13505;45.196;5.696;2023-04-12T13:09:41;98205.16;;;17.77;48.91
25650;BME280;13505;45.196;5.696;2023-04-12T13:14:31;98192.56;;;17.79;47.50
25650;BME280;13505;45.196;5.696;2023-04-12T13:19:21;98169.25;;;17.81;47.92
25650;BME280;13505;45.196;5.696;2023-04-12T13:24:12;98168.41;;;17.71;46.77
25650;BME280;13505;45.196;5.696;2023-04-12T13:29:02;98178.50;;;17.87;47.59
25650;BME280;13505;45.196;5.696;2023-04-12T13:33:52;98162.75;;;17.84;48.52
25650;BME280;13505;45.196;5.696;2023-04-12T13:38:43;98163.34;;;17.78;45.72
25650;BME280;13505;45.196;5.696;2023-04-12T13:43:33;98166.72;;;17.90;44.36
25650;BME280;13505;45.196;5.696;2023-04-12T13:48:23;98161.22;;;17.91;44.07
25650;BME280;13505;45.196;5.696;2023-04-12T13:53:14;98153.50;;;17.88;45.02
25650;BME280;13505;45.196;5.696;2023-04-12T13:58:04;98139.59;;;17.94;47.32
25650;BME280;13505;45.196;5.696;2023-04-12T14:02:55;98139.63;;;18.04;47.38
25650;BME280;13505;45.196;5.696;2023-04-12T14:07:45;98141.97;;;18.17;48.78
25650;BME280;13505;45.196;5.696;2023-04-12T14:12:38;98127.81;;;18.07;49.07
25650;BME280;13505;45.196;5.696;2023-04-12T14:17:29;98112.81;;;17.86;47.40
25650;BME280;13505;45.196;5.696;2023-04-12T14:22:21;98121.06;;;17.83;48.23
25650;BME280;13505;45.196;5.696;2023-04-12T14:27:11;98105.50;;;17.78;49.20
25650;BME280;13505;45.196;5.696;2023-04-12T14:32:02;98107.06;;;17.91;48.55
25650;BME280;13505;45.196;5.696;2023-04-12T14:36:53;98107.44;;;17.96;48.84
25650;BME280;13505;45.196;5.696;2023-04-12T14:41:45;98094.84;;;17.78;47.11
25650;BME280;13505;45.196;5.696;2023-04-12T14:46:36;98087.72;;;17.69;46.84
25650;BME280;13505;45.196;5.696;2023-04-12T14:51:29;98085.06;;;17.59;48.83
25650;BME280;13505;45.196;5.696;2023-04-12T14:56:22;98118.47;;;17.63;52.03
25650;BME280;13505;45.196;5.696;2023-04-12T15:01:13;98115.91;;;17.71;nan
25650;BME280;13505;45.196;5.696;2023-04-12T15:06:03;98150.28;;;17.65;57.55
25650;BME280;13505;45.196;5.696;2023-04-12T15:10:55;98168.09;;;17.35;61.90
25650;BME280;13505;45.196;5.696;2023-04-12T15:15:46;98224.19;;;16.61;66.35
25650;BME280;13505;45.196;5.696;2023-04-12T15:20:36;98257.63;;;15.79;72.71
25650;BME280;13505;45.196;5.696;2023-04-12T15:25:27;98262.59;;;14.93;77.07
25650;BME280;13505;45.196;5.696;2023-04-12T15:30:19;98289.22;;;14.69;79.31
25650;BME280;13505;45.196;5.696;2023-04-12T15:35:10;98293.84;;;14.78;78.76
25650;BME280;13505;45.196;5.696;2023-04-12T15:40:01;98299.50;;;14.74;79.60
25650;BME280;13505;45.196;5.696;2023-04-12T15:44:58;98297.34;;;14.79;80.63
25650;BME280;13505;45.196;5.696;2023-04-12T15:49:48;98293.06;;;14.65;83.50
25650;BME280;13505;45.196;5.696;2023-04-12T15:54:39;98315.59;;;14.48;85.05
25650;BME280;13505;45.196;5.696;2023-04-12T15:59:31;98331.25;;;14.40;86.25
25650;BME280;13505;45.196;5.696;2023-04-12T16:04:21;98329.50;;;14.27;86.93
25650;BME280;13505;45.196;5.696;2023-04-12T16:09:12;98317.44;;;14.23;88.08
25650;BME280;13505;45.196;5.696;2023-04-12T16:14:03;98338.53;;;14.24;88.07
25650;BME280;13505;45.196;5.696;2023-04-12T16:18:53;98343.34;;;14.19;87.02
25650;BME280;13505;45.196;5.696;2023-04-12T16:23:45;98327.22;;;14.22;85.23
25650;BME280;13505;45.196;5.696;2023-04-12T16:28:38;98318.34;;;14.10;87.62
25650;BME280;13505;45.196;5.696;2023-04-12T16:33:28;98330.81;;;13.97;87.71
25650;BME280;13505;45.196;5.696;2023-04-12T16:38:18;98324.66;;;13.96;88.06
25650;BME280;13505;45.196;5.696;2023-04-12T16:43:09;98331.88;;;13.94;89.60
25650;BME280;13505;45.196;5.696;2023-04-12T16:47:59;98338.28;;;13.92;92.24
25650;BME280;13505;45.196;5.696;2023-04-12T16:52:50;98341.88;;;13.91;92.39
25650;BME280;13505;45.196;5.696;2023-04-12T16:57:41;98348.88;;;13.92;92.30
25650;BME280;13505;45.196;5.696;2023-04-12T17:02:33;98355.97;;;13.91;92.96
25650;BME280;13505;45.196;5.696;2023-04-12T17:07:24;98369.47;;;13.88;93.44
25650;BME280;13505;45.196;5.696;2023-04-12T17:12:14;98373.84;;;13.76;93.13
25650;BME280;13505;45.196;5.696;2023-04-12T17:17:05;98380.03;;;13.64;94.16
25650;BME280;13505;45.196;5.696;2023-04-12T17:21:55;98385.97;;;13.54;96.75
25650;BME280;13505;45.196;5.696;2023-04-12T17:26:46;98390.41;;;13.54;96.92
25650;BME280;13505;45.196;5.696;2023-04-12T17:31:36;98395.84;;;13.52;95.46
25650;BME280;13505;45.196;5.696;2023-04-12T17:36:28;98395.09;;;13.50;93.48
25650;BME280;13505;45.196;5.696;2023-04-12T17:41:21;98393.41;;;13.49;92.37
25650;BME280;13505;45.196;5.696;2023-04-12T17:46:11;98394.56;;;13.45;93.23
25650;BME280;13505;45.196;5.696;2023-04-12T17:51:01;98424.72;;;13.43;92.36
25650;BME280;13505;45.196;5.696;2023-04-12T17:55:52;98448.38;;;13.33;90.62
